Time;durP1;ratioP1;P1;durP2;ratioP2;P2;SDS_P1;SDS_P2;PMS_P1;PMS_P2;Temp;Humidity;BMP_temperature;BMP_pressure;BME280_temperature;BME280_humidity;BME280_pressure;Samples;Min_cycle;Max_cycle;Signal;HPM_P1;HPM_P2
2021/05/30 00:00:52;;;;;;;1999.90;999.90;;;11.80;99.90;;;;;;5056414;28;20169;-59
2021/05/30 00:03:19;;;;;;;1999.90;999.90;;;11.70;99.90;;;;;;5056187;28;20216;-57
2021/05/30 00:05:46;;;;;;;1999.90;999.90;;;11.70;99.90;;;;;;5056355;28;20157;-56
2021/05/30 00:08:15;;;;;;;1999.90;999.90;;;11.60;99.90;;;;;;5056110;28;20255;-59
2021/05/30 00:10:43;;;;;;;1999.90;999.90;;;11.60;99.90;;;;;;5055902;28;20606;-58
2021/05/30 00:13:11;;;;;;;1999.90;999.90;;;11.50;99.90;;;;;;5056093;28;20169;-59
2021/05/30 00:15:39;;;;;;;1999.90;999.90;;;11.50;99.90;;;;;;5056025;28;20196;-59
2021/05/30 00:18:05;;;;;;;1999.90;999.90;;;11.50;99.90;;;;;;5055974;28;20173;-51
2021/05/30 00:20:32;;;;;;;1999.90;999.90;;;11.50;99.90;;;;;;5055830;28;20628;-58
2021/05/30 00:22:59;;;;;;;1999.90;999.90;;;11.40;99.90;;;;;;5055837;28;20200;-59
2021/05/30 00:25:26;;;;;;;1999.90;999.90;;;11.20;99.90;;;;;;5055803;28;20169;-58
2021/05/30 00:27:53;;;;;;;1999.90;999.90;;;11.20;99.90;;;;;;5055729;28;20226;-55
2021/05/30 00:30:21;;;;;;;1999.90;999.90;;;11.20;99.90;;;;;;5055787;28;20599;-58
2021/05/30 00:32:48;;;;;;;1999.90;999.90;;;11.20;99.90;;;;;;5055828;28;20589;-58
2021/05/30 00:35:15;;;;;;;1999.90;999.90;;;11.20;99.90;;;;;;5055492;28;20530;-59
2021/05/30 00:37:41;;;;;;;1999.90;999.90;;;11.20;99.90;;;;;;5055462;28;20165;-58
2021/05/30 00:40:09;;;;;;;1999.90;999.90;;;11.10;99.90;;;;;;5055405;28;20628;-59
2021/05/30 00:42:35;;;;;;;1999.90;999.90;;;11.10;99.90;;;;;;5055386;28;20671;-58
2021/05/30 00:45:04;;;;;;;1999.90;999.90;;;11.20;99.90;;;;;;5055269;28;20201;-56
2021/05/30 00:47:31;;;;;;;1999.90;999.90;;;11.20;99.90;;;;;;5055390;28;20180;-53
2021/05/30 00:49:58;;;;;;;1999.90;999.90;;;11.10;99.90;;;;;;5055181;28;20219;-59
2021/05/30 00:52:25;;;;;;;1999.90;999.90;;;11.20;99.90;;;;;;5055339;28;20172;-52
2021/05/30 00:54:52;;;;;;;1999.90;999.90;;;11.10;99.90;;;;;;5055327;28;20634;-59
2021/05/30 00:57:19;;;;;;;1999.90;999.90;;;11.10;99.90;;;;;;5055223;28;20689;-59
2021/05/30 00:59:46;;;;;;;1999.90;999.90;;;11.10;99.90;;;;;;5054070;28;20204;-59
2021/05/30 01:02:14;;;;;;;1999.90;999.90;;;11.00;99.90;;;;;;5054970;28;20204;-58
2021/05/30 01:04:41;;;;;;;1999.90;999.90;;;11.00;99.90;;;;;;5055104;28;20215;-59
2021/05/30 01:07:08;;;;;;;1999.90;999.90;;;11.00;99.90;;;;;;5054914;28;20256;-59
2021/05/30 01:09:35;;;;;;;1999.90;999.90;;;10.90;99.90;;;;;;5054774;28;20560;-59
2021/05/30 01:12:04;;;;;;;1999.90;999.90;;;10.90;99.90;;;;;;5054855;28;20173;-59
2021/05/30 01:14:34;;;;;;;1999.90;999.90;;;10.80;99.90;;;;;;5054659;28;20521;-58
2021/05/30 01:17:02;;;;;;;1999.90;999.90;;;10.70;99.90;;;;;;5054871;28;20251;-58
2021/05/30 01:19:32;;;;;;;1999.90;999.90;;;10.70;99.90;;;;;;5054624;28;20170;-58
2021/05/30 01:21:59;;;;;;;1999.90;999.90;;;10.70;99.90;;;;;;5054617;28;20554;-59
2021/05/30 01:24:26;;;;;;;1999.90;999.90;;;10.70;99.90;;;;;;5054727;28;20165;-55
2021/05/30 01:26:53;;;;;;;1999.90;999.90;;;10.60;99.90;;;;;;5054628;28;20199;-51
2021/05/30 01:29:20;;;;;;;1999.90;999.90;;;10.60;99.90;;;;;;5054496;28;20204;-56
2021/05/30 01:31:47;;;;;;;1999.90;999.90;;;10.60;99.90;;;;;;5054267;28;20304;-50
2021/05/30 01:34:15;;;;;;;1999.90;999.90;;;10.70;99.90;;;;;;5054470;28;20250;-53
2021/05/30 01:36:42;;;;;;;1999.90;999.90;;;10.70;99.90;;;;;;5054362;28;20193;-51
2021/05/30 01:39:08;;;;;;;1999.90;999.90;;;10.60;99.90;;;;;;5054254;28;20173;-59
2021/05/30 01:41:35;;;;;;;1999.90;999.90;;;10.60;99.90;;;;;;5053198;28;20606;-59
2021/05/30 01:44:02;;;;;;;1999.90;999.90;;;10.50;99.90;;;;;;5054244;28;20173;-55
2021/05/30 01:46:29;;;;;;;1999.90;999.90;;;10.50;99.90;;;;;;5054344;28;20169;-59
2021/05/30 01:48:56;;;;;;;1999.90;999.90;;;10.50;99.90;;;;;;5054185;28;20188;-53
2021/05/30 01:51:23;;;;;;;1999.90;999.90;;;10.40;99.90;;;;;;5054099;28;20582;-59
2021/05/30 01:53:56;;;;;;;1999.90;999.90;;;10.40;99.90;;;;;;5054150;28;20200;-58
2021/05/30 01:59:09;;;;;;;1999.90;999.90;;;10.50;99.90;;;;;;5053884;28;20207;-59
2021/05/30 02:01:37;;;;;;;1999.90;999.90;;;10.50;99.90;;;;;;5053761;28;20200;-58
2021/05/30 02:04:06;;;;;;;1999.90;999.90;;;10.50;99.90;;;;;;5053787;28;20272;-52
2021/05/30 02:06:33;;;;;;;1999.90;999.90;;;10.40;99.90;;;;;;5053802;28;20585;-50
2021/05/30 02:09:02;;;;;;;1999.90;999.90;;;10.30;99.90;;;;;;5053948;28;20224;-59
2021/05/30 02:11:29;;;;;;;1999.90;999.90;;;10.30;99.90;;;;;;5053612;28;20509;-59
2021/05/30 02:14:01;;;;;;;1999.90;999.90;;;10.30;99.90;;;;;;5053958;28;20165;-58
2021/05/30 02:16:32;;;;;;;1999.90;999.90;;;10.20;99.90;;;;;;5053593;28;20161;-56
2021/05/30 02:18:59;;;;;;;1999.90;999.90;;;10.20;99.90;;;;;;5052281;28;20183;-59
2021/05/30 02:21:37;;;;;;;1999.90;999.90;;;10.30;99.90;;;;;;5053451;28;20537;-56
2021/05/30 02:24:04;;;;;;;1999.90;999.90;;;10.20;99.90;;;;;;5053581;28;20647;-51
2021/05/30 02:26:31;;;;;;;1999.90;999.90;;;10.20;99.90;;;;;;5053452;28;20169;-59
2021/05/30 02:28:58;;;;;;;1999.90;999.90;;;10.20;99.90;;;;;;5053644;28;20193;-53
2021/05/30 02:31:25;;;;;;;1999.90;999.90;;;10.10;99.90;;;;;;5053093;28;20253;-51
2021/05/30 02:33:52;;;;;;;1999.90;999.90;;;10.10;99.90;;;;;;5053287;28;20173;-58
2021/05/30 02:36:19;;;;;;;1999.90;999.90;;;10.10;99.90;;;;;;5053226;28;20182;-59
2021/05/30 02:38:46;;;;;;;1999.90;999.90;;;10.10;99.90;;;;;;5053304;28;20173;-54
2021/05/30 02:41:12;;;;;;;1999.90;999.90;;;10.10;99.90;;;;;;5053164;28;20169;-58
2021/05/30 02:43:39;;;;;;;1999.90;999.90;;;10.10;99.90;;;;;;5053202;28;20173;-59
2021/05/30 02:46:06;;;;;;;1999.90;999.90;;;10.00;99.90;;;;;;5053055;28;20234;-58
2021/05/30 02:48:34;;;;;;;1999.90;999.90;;;10.00;99.90;;;;;;5053334;28;20181;-58
2021/05/30 02:51:01;;;;;;;1999.90;999.90;;;9.90;99.90;;;;;;5053203;28;20177;-58
2021/05/30 02:53:30;;;;;;;1999.90;999.90;;;9.90;99.90;;;;;;5053191;28;20215;-53
2021/05/30 02:55:58;;;;;;;1999.90;999.90;;;9.90;99.90;;;;;;5053015;28;20248;-50
2021/05/30 02:58:26;;;;;;;1999.90;999.90;;;9.80;99.90;;;;;;5053044;28;20579;-58
2021/05/30 03:00:54;;;;;;;1999.90;999.90;;;9.80;99.90;;;;;;5052879;28;20180;-58
2021/05/30 03:03:21;;;;;;;1999.90;999.90;;;9.80;99.90;;;;;;5052791;28;20197;-58
2021/05/30 03:05:48;;;;;;;1999.90;999.90;;;9.80;99.90;;;;;;5052811;28;20223;-54
2021/05/30 03:08:14;;;;;;;1999.90;999.90;;;9.80;99.90;;;;;;5052810;28;20175;-52
2021/05/30 03:10:41;;;;;;;1999.90;999.90;;;9.70;99.90;;;;;;5053022;28;20219;-58
2021/05/30 03:13:08;;;;;;;1999.90;999.90;;;9.70;99.90;;;;;;5052774;28;20177;-56
2021/05/30 03:15:35;;;;;;;1999.90;999.90;;;9.60;99.90;;;;;;5052898;28;20694;-57
2021/05/30 03:18:02;;;;;;;1999.90;999.90;;;9.60;99.90;;;;;;5052932;28;20181;-58
2021/05/30 03:20:29;;;;;;;1999.90;999.90;;;9.70;99.90;;;;;;5052835;28;20622;-58
2021/05/30 03:22:56;;;;;;;1999.90;999.90;;;9.70;99.90;;;;;;5055007;28;20213;-58
2021/05/30 03:25:23;;;;;;;1999.90;999.90;;;9.80;99.90;;;;;;5056757;28;20632;-58
2021/05/30 03:27:49;;;;;;;1999.90;999.90;;;9.70;99.90;;;;;;5056718;28;20173;-57
2021/05/30 03:30:16;;;;;;;1999.90;999.90;;;9.80;99.90;;;;;;5056407;28;20224;-53
2021/05/30 03:32:43;;;;;;;1999.90;999.90;;;9.70;99.90;;;;;;5056627;28;20581;-54
2021/05/30 03:35:11;;;;;;;1999.90;999.90;;;9.80;99.90;;;;;;5056602;28;20627;-58
2021/05/30 03:37:38;;;;;;;1999.90;999.90;;;9.80;99.90;;;;;;5056801;28;20169;-57
2021/05/30 03:40:17;;;;;;;1999.90;999.90;;;9.80;99.90;;;;;;5056596;28;20172;-50
2021/05/30 03:42:48;;;;;;;1999.90;999.90;;;9.80;99.90;;;;;;5056297;28;20214;-58
2021/05/30 03:45:16;;;;;;;1999.90;999.90;;;9.80;99.90;;;;;;5056339;28;20492;-58
2021/05/30 03:47:43;;;;;;;1999.90;999.90;;;9.80;99.90;;;;;;5056358;28;20196;-58
2021/05/30 03:50:10;;;;;;;1999.90;999.90;;;9.70;99.90;;;;;;5056293;28;20166;-58
2021/05/30 03:52:38;;;;;;;1999.90;999.90;;;9.70;99.90;;;;;;5056392;28;20183;-58
2021/05/30 03:55:06;;;;;;;1999.90;999.90;;;9.60;99.90;;;;;;5056264;28;20165;-50
2021/05/30 03:57:35;;;;;;;1999.90;999.90;;;9.60;99.90;;;;;;5056219;28;20174;-58
2021/05/30 04:00:06;;;;;;;1999.90;999.90;;;9.50;99.90;;;;;;5056081;28;20215;-52
2021/05/30 04:02:33;;;;;;;1999.90;999.90;;;9.40;99.90;;;;;;5055994;28;20663;-58
2021/05/30 04:05:00;;;;;;;1999.90;999.90;;;9.50;99.90;;;;;;5056041;28;20307;-60
2021/05/30 04:07:27;;;;;;;1999.90;999.90;;;9.40;99.90;;;;;;5055802;28;20181;-58
2021/05/30 04:09:54;;;;;;;1999.90;999.90;;;9.40;99.90;;;;;;5055911;28;20257;-57
2021/05/30 04:12:21;;;;;;;1999.90;999.90;;;9.30;99.90;;;;;;5055788;28;20188;-52
2021/05/30 04:14:47;;;;;;;1999.90;999.90;;;9.40;99.90;;;;;;5055924;28;20180;-58
2021/05/30 04:17:14;;;;;;;1999.90;999.90;;;9.30;99.90;;;;;;5055819;28;20223;-53
2021/05/30 04:19:41;;;;;;;1999.90;999.90;;;9.20;99.90;;;;;;5055852;28;20249;-57
2021/05/30 04:22:08;;;;;;;1999.90;999.90;;;9.20;99.90;;;;;;5055780;28;20667;-50
2021/05/30 04:24:34;;;;;;;1999.90;999.90;;;9.20;99.90;;;;;;5055671;28;20166;-56
2021/05/30 04:27:01;;;;;;;1999.90;999.90;;;9.30;99.90;;;;;;5055670;28;20632;-51
2021/05/30 04:29:28;;;;;;;1999.90;999.90;;;9.30;99.90;;;;;;5055546;28;20222;-57
2021/05/30 04:31:55;;;;;;;1999.90;999.90;;;9.20;99.90;;;;;;5055341;28;20217;-52
2021/05/30 04:34:21;;;;;;;1999.90;999.90;;;9.20;99.90;;;;;;5054024;28;20169;-57
2021/05/30 04:36:48;;;;;;;1999.90;999.90;;;9.20;99.90;;;;;;5055278;28;20646;-57
2021/05/30 04:39:15;;;;;;;1999.90;999.90;;;9.30;99.90;;;;;;5055428;28;20202;-51
2021/05/30 04:41:42;;;;;;;1999.90;999.90;;;9.30;99.90;;;;;;5055441;28;20283;-50
2021/05/30 04:44:09;;;;;;;1999.90;999.90;;;9.20;99.90;;;;;;5055595;28;20207;-56
2021/05/30 04:46:36;;;;;;;1999.90;999.90;;;9.20;99.90;;;;;;5055220;28;20180;-56
2021/05/30 04:49:02;;;;;;;1999.90;999.90;;;9.20;99.90;;;;;;5055114;28;20286;-53
2021/05/30 04:51:29;;;;;;;1999.90;999.90;;;9.10;99.90;;;;;;5055138;28;20165;-57
2021/05/30 04:53:58;;;;;;;1999.90;999.90;;;9.20;99.90;;;;;;5054970;28;20173;-56
2021/05/30 04:56:26;;;;;;;1999.90;999.90;;;9.20;99.90;;;;;;5054998;28;20177;-50
2021/05/30 04:58:53;;;;;;;1999.90;999.90;;;9.10;99.90;;;;;;5055018;28;20244;-51
2021/05/30 05:01:20;;;;;;;1999.90;999.90;;;9.10;99.90;;;;;;5054860;28;20202;-57
2021/05/30 05:03:48;;;;;;;1999.90;999.90;;;9.10;99.90;;;;;;5054910;28;20192;-49
2021/05/30 05:06:15;;;;;;;1999.90;999.90;;;9.10;99.90;;;;;;5054940;28;20228;-55
2021/05/30 05:08:43;;;;;;;1999.90;999.90;;;9.10;99.90;;;;;;5055019;28;20180;-58
2021/05/30 05:11:09;;;;;;;1999.90;999.90;;;9.00;99.90;;;;;;5054799;28;20176;-58
2021/05/30 05:13:37;;;;;;;1999.90;999.90;;;9.10;99.90;;;;;;5054881;28;20260;-54
2021/05/30 05:16:04;;;;;;;1999.90;999.90;;;9.00;99.90;;;;;;5054595;28;20192;-58
2021/05/30 05:18:32;;;;;;;1999.90;999.90;;;9.00;99.90;;;;;;5054660;28;20256;-53
2021/05/30 05:21:01;;;;;;;1999.90;999.90;;;9.00;99.90;;;;;;5054528;28;20161;-51
2021/05/30 05:23:28;;;;;;;1999.90;999.90;;;8.90;99.90;;;;;;5054274;28;20212;-57
2021/05/30 05:25:57;;;;;;;1999.90;999.90;;;9.00;99.90;;;;;;5054495;28;20178;-50
2021/05/30 05:28:25;;;;;;;1999.90;999.90;;;9.00;99.90;;;;;;5054163;28;20254;-56
2021/05/30 05:30:55;;;;;;;1999.90;999.90;;;9.00;99.90;;;;;;5052690;28;20231;-54
2021/05/30 05:33:22;;;;;;;1999.90;999.90;;;9.00;99.90;;;;;;5054221;28;20658;-50
2021/05/30 05:35:50;;;;;;;1999.90;999.90;;;9.00;99.90;;;;;;5054007;28;20271;-58
2021/05/30 05:38:18;;;;;;;1999.90;999.90;;;8.90;99.90;;;;;;5054010;28;20185;-50
2021/05/30 05:40:45;;;;;;;1999.90;999.90;;;8.90;99.90;;;;;;5053988;28;20187;-56
2021/05/30 05:43:12;;;;;;;1999.90;999.90;;;8.90;99.90;;;;;;5053785;28;20272;-57
2021/05/30 05:45:39;;;;;;;1999.90;999.90;;;8.90;99.90;;;;;;5053365;28;20173;-57
2021/05/30 05:48:15;;;;;;;1999.90;999.90;;;8.90;99.90;;;;;;5053541;28;20189;-58
2021/05/30 05:50:42;;;;;;;1999.90;999.90;;;8.90;99.90;;;;;;5053569;28;20168;-53
2021/05/30 05:53:09;;;;;;;1999.90;999.90;;;8.90;99.90;;;;;;5053603;28;20706;-54
2021/05/30 05:55:36;;;;;;;1999.90;999.90;;;8.90;99.90;;;;;;5053579;28;20158;-57
2021/05/30 05:58:04;;;;;;;1999.90;999.90;;;8.90;99.90;;;;;;5053505;28;20635;-57
2021/05/30 06:00:32;;;;;;;1999.90;999.90;;;9.00;99.90;;;;;;5053552;28;20172;-56
2021/05/30 06:02:59;;;;;;;1999.90;999.90;;;9.00;99.90;;;;;;5053511;28;20656;-56
2021/05/30 06:05:26;;;;;;;1999.90;999.90;;;9.00;99.90;;;;;;5053481;28;20185;-50
2021/05/30 06:07:56;;;;;;;1999.90;999.90;;;9.00;99.90;;;;;;5053383;28;20600;-58
2021/05/30 06:10:25;;;;;;;1999.90;999.90;;;9.00;99.90;;;;;;5053542;28;20715;-50
2021/05/30 06:12:56;;;;;;;1999.90;999.90;;;9.00;99.90;;;;;;5053359;28;20219;-53
2021/05/30 06:15:24;;;;;;;1999.90;999.90;;;9.00;99.90;;;;;;5053261;28;20165;-58
2021/05/30 06:17:55;;;;;;;1999.90;999.90;;;9.00;99.90;;;;;;5052026;28;20230;-53
2021/05/30 06:20:23;;;;;;;1999.90;999.90;;;9.00;99.90;;;;;;5053117;28;20161;-53
2021/05/30 06:22:50;;;;;;;1999.90;999.90;;;9.00;99.90;;;;;;5053137;28;20216;-49
2021/05/30 06:25:17;;;;;;;1999.90;999.90;;;9.10;99.90;;;;;;5053236;28;20167;-56
2021/05/30 06:27:44;;;;;;;1999.90;999.90;;;9.10;99.90;;;;;;5052844;28;20250;-54
2021/05/30 06:30:12;;;;;;;1999.90;999.90;;;9.20;99.90;;;;;;5052749;28;20217;-58
2021/05/30 06:32:39;;;;;;;1999.90;999.90;;;9.20;99.90;;;;;;5052978;28;20172;-57
2021/05/30 06:35:11;;;;;;;1999.90;999.90;;;9.20;99.90;;;;;;5053249;28;20185;-54
2021/05/30 06:37:38;;;;;;;1999.90;999.90;;;9.20;99.90;;;;;;5052916;28;20238;-55
2021/05/30 06:40:07;;;;;;;1999.90;999.90;;;9.30;99.90;;;;;;5052855;28;20639;-55
2021/05/30 06:42:34;;;;;;;1999.90;999.90;;;9.30;99.90;;;;;;5052807;28;20204;-58
2021/05/30 06:45:01;;;;;;;1999.90;999.90;;;9.40;99.90;;;;;;5052980;28;20173;-57
2021/05/30 06:47:28;;;;;;;1999.90;999.90;;;9.50;99.90;;;;;;5052929;28;20215;-58
2021/05/30 06:49:55;;;;;;;1999.90;999.90;;;9.50;99.90;;;;;;5052853;28;20279;-57
2021/05/30 06:52:22;;;;;;;1999.90;999.90;;;9.60;99.90;;;;;;5052956;28;20173;-57
2021/05/30 06:54:49;;;;;;;1999.90;999.90;;;9.60;99.90;;;;;;5052818;28;20620;-58
2021/05/30 06:57:16;;;;;;;1999.90;999.90;;;9.70;99.90;;;;;;5052219;28;20522;-58
2021/05/30 06:59:44;;;;;;;1999.90;999.90;;;9.80;99.90;;;;;;5052772;28;20323;-58
2021/05/30 07:02:11;;;;;;;1999.90;999.90;;;9.90;99.90;;;;;;5052579;28;20207;-58
2021/05/30 07:04:38;;;;;;;1999.90;999.90;;;9.90;99.90;;;;;;5052717;28;20177;-58
2021/05/30 07:07:05;;;;;;;1999.90;999.90;;;9.90;99.90;;;;;;5052792;28;20161;-58
2021/05/30 07:09:32;;;;;;;1999.90;999.90;;;10.00;99.90;;;;;;5052592;28;20166;-58
2021/05/30 07:11:59;;;;;;;1999.90;999.90;;;10.00;99.90;;;;;;5052624;28;20502;-58
2021/05/30 07:14:25;;;;;;;1999.90;999.90;;;10.10;99.90;;;;;;5052719;28;20238;-56
2021/05/30 07:16:56;;;;;;;1999.90;999.90;;;10.10;99.90;;;;;;5052780;28;20161;-59
2021/05/30 07:19:24;;;;;;;1999.90;999.90;;;10.20;99.90;;;;;;5052701;28;20248;-58
2021/05/30 07:21:51;;;;;;;1999.90;999.90;;;10.20;99.90;;;;;;5051291;28;20207;-58
2021/05/30 07:24:18;;;;;;;1999.90;999.90;;;10.30;99.90;;;;;;5052491;28;20557;-58
2021/05/30 07:26:45;;;;;;;1999.90;999.90;;;10.40;99.90;;;;;;5052452;28;20183;-58
2021/05/30 07:29:14;;;;;;;1999.90;999.90;;;10.40;99.90;;;;;;5052466;28;20247;-58
2021/05/30 07:31:42;;;;;;;1999.90;999.90;;;10.50;99.90;;;;;;5052230;28;20229;-59
2021/05/30 07:34:11;;;;;;;1999.90;999.90;;;10.60;99.90;;;;;;5052476;28;20173;-59
2021/05/30 07:36:38;;;;;;;1999.90;999.90;;;10.70;99.90;;;;;;5052632;28;20632;-59
2021/05/30 07:39:06;;;;;;;1999.90;999.90;;;10.80;99.90;;;;;;5052424;28;20196;-58
2021/05/30 07:41:34;;;;;;;1999.90;999.90;;;10.80;99.90;;;;;;5052195;28;20264;-59
2021/05/30 07:44:01;;;;;;;1999.90;999.90;;;10.90;99.90;;;;;;5052284;28;20178;-59
2021/05/30 07:46:28;;;;;;;1999.90;999.90;;;11.00;99.90;;;;;;5052212;28;20161;-59
2021/05/30 07:48:55;;;;;;;1999.90;999.90;;;11.10;99.90;;;;;;5052235;28;20192;-59
2021/05/30 07:51:22;;;;;;;1999.90;999.90;;;11.10;99.90;;;;;;5051068;28;20628;-59
2021/05/30 07:53:49;;;;;;;1999.90;999.90;;;11.20;99.90;;;;;;5052254;28;20177;-59
2021/05/30 07:56:16;;;;;;;1999.90;999.90;;;11.40;99.90;;;;;;5052164;28;20174;-56
2021/05/30 07:58:42;;;;;;;1999.90;999.90;;;11.60;99.90;;;;;;5052185;28;20565;-59
2021/05/30 08:01:09;;;;;;;1999.90;999.90;;;11.60;99.90;;;;;;5052070;28;20513;-59
2021/05/30 08:03:36;;;;;;;1999.90;999.90;;;11.60;99.90;;;;;;5051998;28;20193;-59
2021/05/30 08:06:03;;;;;;;1999.90;999.90;;;11.70;99.90;;;;;;5052043;28;20525;-59
2021/05/30 08:08:30;;;;;;;1999.90;999.90;;;11.80;99.90;;;;;;5053420;28;20169;-58
2021/05/30 08:10:57;;;;;;;1999.90;999.90;;;11.80;99.90;;;;;;5055734;28;20176;-59
2021/05/30 08:13:24;;;;;;;1999.90;999.90;;;11.90;99.90;;;;;;5055590;28;20691;-59
2021/05/30 08:15:51;;;;;;;1999.90;999.90;;;12.00;99.90;;;;;;5055537;28;20173;-59
2021/05/30 08:18:18;;;;;;;1999.90;999.90;;;12.20;99.90;;;;;;5055473;28;20169;-58
2021/05/30 08:20:45;;;;;;;1999.90;999.90;;;12.30;99.90;;;;;;5055427;28;20169;-59
2021/05/30 08:23:12;;;;;;;1999.90;999.90;;;12.40;99.90;;;;;;5055500;28;20205;-59
2021/05/30 08:25:39;;;;;;;1999.90;999.90;;;12.50;99.90;;;;;;5055285;28;20577;-59
2021/05/30 08:28:09;;;;;;;1999.90;999.90;;;12.60;99.90;;;;;;5055258;28;20177;-58
2021/05/30 08:30:38;;;;;;;1999.90;999.90;;;12.60;99.90;;;;;;5055000;28;20209;-59
2021/05/30 08:33:05;;;;;;;1999.90;999.90;;;12.80;99.90;;;;;;5055215;28;20173;-59
2021/05/30 08:35:33;;;;;;;1999.90;999.90;;;12.90;99.90;;;;;;5055382;28;20173;-59
2021/05/30 08:38:00;;;;;;;1999.90;999.90;;;13.00;99.90;;;;;;5055150;28;20173;-59
2021/05/30 08:40:26;;;;;;;1999.90;999.90;;;13.10;99.90;;;;;;5055038;28;20170;-58
2021/05/30 08:42:54;;;;;;;1999.90;999.90;;;13.20;99.90;;;;;;5054898;28;20211;-59
2021/05/30 08:45:21;;;;;;;1999.90;999.90;;;13.30;99.90;;;;;;5053734;28;20216;-59
2021/05/30 08:47:48;;;;;;;1999.90;999.90;;;13.40;99.90;;;;;;5054916;28;20242;-59
2021/05/30 08:50:16;;;;;;;1999.90;999.90;;;13.50;99.90;;;;;;5054993;28;20542;-59
2021/05/30 08:52:43;;;;;;;1999.90;999.90;;;13.60;99.90;;;;;;5054819;28;20248;-59
2021/05/30 08:55:11;;;;;;;1999.90;999.90;;;13.70;99.90;;;;;;5054760;28;20173;-59
2021/05/30 08:57:39;;;;;;;1999.90;999.90;;;13.90;99.90;;;;;;5054796;28;20687;-59
2021/05/30 09:00:08;;;;;;;1999.90;999.90;;;14.00;99.90;;;;;;5054682;28;20230;-59
2021/05/30 09:02:35;;;;;;;1999.90;999.90;;;14.10;99.90;;;;;;5054664;28;20698;-58
2021/05/30 09:05:06;;;;;;;1999.90;999.90;;;14.10;99.90;;;;;;5054881;28;20176;-59
2021/05/30 09:07:43;;;;;;;1999.90;999.90;;;14.20;99.90;;;;;;5054797;28;20153;-59
2021/05/30 09:10:22;;;;;;;1999.90;999.90;;;14.30;99.90;;;;;;5054559;28;20188;-59
2021/05/30 09:13:15;;;;;;;1999.90;999.90;;;14.50;99.90;;;;;;5054818;28;20165;-59
2021/05/30 09:15:56;;;;;;;1999.90;999.90;;;14.60;99.90;;;;;;5054579;28;20146;-59
2021/05/30 09:18:32;;;;;;;1999.90;999.90;;;14.70;99.90;;;;;;5054746;28;20203;-58
2021/05/30 09:21:09;;;;;;;1999.90;999.90;;;14.80;99.90;;;;;;5053669;28;20153;-59
2021/05/30 09:23:41;;;;;;;1999.90;999.90;;;15.00;99.90;;;;;;5054341;28;20196;-59
2021/05/30 09:26:13;;;;;;;1999.90;999.90;;;15.10;99.90;;;;;;5054259;28;20167;-59
2021/05/30 09:29:00;;;;;;;1999.90;999.90;;;15.30;99.90;;;;;;5053009;28;20222;-59
2021/05/30 09:31:28;;;;;;;1999.90;999.90;;;15.40;99.90;;;;;;5053851;28;20587;-59
2021/05/30 09:33:54;;;;;;;1999.90;999.90;;;15.60;99.90;;;;;;5053877;28;20575;-59
2021/05/30 09:36:23;;;;;;;1999.90;999.90;;;15.80;99.90;;;;;;5053882;28;20240;-59
2021/05/30 09:39:03;;;;;;;1999.90;999.90;;;16.00;99.90;;;;;;5053717;28;20169;-59
2021/05/30 09:41:30;;;;;;;1999.90;999.90;;;16.30;99.90;;;;;;5053724;28;20258;-59
2021/05/30 09:43:57;;;;;;;1999.90;999.90;;;16.30;99.90;;;;;;5053392;28;20550;-59
2021/05/30 09:46:32;;;;;;;1999.90;999.90;;;16.40;99.90;;;;;;5053468;28;20204;-59
2021/05/30 09:49:00;;;;;;;1999.90;999.90;;;16.40;99.90;;;;;;5053604;28;20158;-59
2021/05/30 09:51:43;;;;;;;1999.90;999.90;;;16.50;99.90;;;;;;5053768;28;20172;-59
2021/05/30 09:54:17;;;;;;;1999.90;999.90;;;16.60;99.90;;;;;;5053585;28;20178;-59
2021/05/30 09:56:55;;;;;;;1999.90;999.90;;;16.60;99.90;;;;;;5053643;28;20161;-59
2021/05/30 09:59:26;;;;;;;1999.90;999.90;;;16.80;99.90;;;;;;5053944;28;20168;-59
2021/05/30 10:02:03;;;;;;;1999.90;999.90;;;16.90;99.90;;;;;;5053572;28;20288;-59
2021/05/30 10:04:31;;;;;;;1999.90;999.90;;;16.90;99.90;;;;;;5053647;28;20192;-59
2021/05/30 10:07:00;;;;;;;1999.90;999.90;;;17.00;99.90;;;;;;5053484;28;20646;-59
2021/05/30 10:09:28;;;;;;;1999.90;999.90;;;16.90;99.90;;;;;;5053540;28;20187;-59
2021/05/30 10:11:59;;;;;;;1999.90;999.90;;;16.80;99.90;;;;;;5053248;28;20230;-59
2021/05/30 10:14:27;;;;;;;1999.90;999.90;;;16.80;99.90;;;;;;5053364;28;20181;-59
2021/05/30 10:16:54;;;;;;;1999.90;999.90;;;16.90;99.90;;;;;;5053407;28;20171;-59
2021/05/30 10:19:33;;;;;;;1999.90;999.90;;;17.10;99.90;;;;;;5053074;28;20585;-58
2021/05/30 10:22:01;;;;;;;1999.90;999.90;;;17.30;99.90;;;;;;5053167;28;20254;-58
2021/05/30 10:24:29;;;;;;;1999.90;999.90;;;17.40;99.90;;;;;;5051958;28;20220;-58
2021/05/30 10:27:26;;;;;;;1999.90;999.90;;;17.50;99.90;;;;;;5053218;28;20161;-58
2021/05/30 10:30:10;;;;;;;1999.90;999.90;;;17.50;98.90;;;;;;5052988;28;20211;-59
2021/05/30 10:32:39;;;;;;;1999.90;999.90;;;17.60;99.90;;;;;;5052955;28;20189;-59
2021/05/30 10:35:25;;;;;;;1999.90;999.90;;;17.70;99.00;;;;;;5051676;28;20647;-59
2021/05/30 10:37:56;;;;;;;1999.90;999.90;;;17.70;98.00;;;;;;5053018;28;20224;-58
2021/05/30 10:40:23;;;;;;;1999.90;999.90;;;17.80;97.50;;;;;;5052957;28;20173;-59
2021/05/30 10:43:11;;;;;;;1999.90;999.90;;;17.80;98.50;;;;;;5052846;28;20672;-58
2021/05/30 10:45:45;;;;;;;1999.90;999.90;;;17.80;97.10;;;;;;5052909;28;20574;-59
2021/05/30 10:48:16;;;;;;;1999.90;999.90;;;18.00;95.60;;;;;;5053032;28;20161;-58
2021/05/30 10:51:07;;;;;;;1999.90;999.90;;;18.20;93.70;;;;;;5052755;28;20658;-58
2021/05/30 10:53:35;;;;;;;1999.90;999.90;;;18.10;95.80;;;;;;5052898;28;20659;-58
2021/05/30 10:56:37;;;;;;;1999.90;999.90;;;18.00;94.70;;;;;;5052748;28;20165;-59
2021/05/30 10:59:07;;;;;;;1999.90;999.90;;;18.10;96.40;;;;;;5053077;28;20167;-58
2021/05/30 11:01:48;;;;;;;1999.90;999.90;;;18.10;95.00;;;;;;5052761;28;20252;-58
2021/05/30 11:04:24;;;;;;;1999.90;999.90;;;18.10;92.80;;;;;;5052869;28;20158;-58
2021/05/30 11:06:51;;;;;;;1999.90;999.90;;;18.10;94.60;;;;;;5052755;28;20692;-58
2021/05/30 11:09:19;;;;;;;1999.90;999.90;;;18.10;95.20;;;;;;5052520;28;20635;-59
2021/05/30 11:11:46;;;;;;;1999.90;999.90;;;18.10;94.40;;;;;;5052503;28;20165;-58
2021/05/30 11:14:15;;;;;;;1999.90;999.90;;;18.30;94.10;;;;;;5052526;28;20558;-59
2021/05/30 11:16:44;;;;;;;1999.90;999.90;;;18.50;93.40;;;;;;5052867;28;20176;-59
2021/05/30 11:19:15;;;;;;;1999.90;999.90;;;18.50;91.70;;;;;;5052529;28;20235;-59
2021/05/30 11:21:49;;;;;;;1999.90;999.90;;;18.60;92.50;;;;;;5052319;28;20367;-59
2021/05/30 11:24:22;;;;;;;1999.90;999.90;;;18.60;92.90;;;;;;5052595;28;20175;-59
2021/05/30 11:27:05;;;;;;;1999.90;999.90;;;18.70;90.70;;;;;;5052350;28;20662;-59
2021/05/30 11:29:33;;;;;;;1999.90;999.90;;;18.70;91.40;;;;;;5052378;28;20172;-59
2021/05/30 11:32:02;;;;;;;1999.90;999.90;;;18.60;89.70;;;;;;5052218;28;20220;-59
2021/05/30 11:34:34;;;;;;;1999.90;999.90;;;18.30;90.80;;;;;;5052345;28;20200;-59
2021/05/30 11:37:08;;;;;;;1999.90;999.90;;;18.30;92.30;;;;;;5052477;28;20159;-59
2021/05/30 11:39:43;;;;;;;1999.90;999.90;;;18.30;93.40;;;;;;5052176;28;20165;-59
2021/05/30 11:42:10;;;;;;;1999.90;999.90;;;18.40;92.80;;;;;;5052222;28;20211;-59
2021/05/30 11:44:37;;;;;;;1999.90;999.90;;;18.50;92.10;;;;;;5055631;28;20162;-59
2021/05/30 11:47:08;;;;;;;1999.90;999.90;;;18.60;90.90;;;;;;5056136;28;20647;-59
2021/05/30 11:49:40;;;;;;;1999.90;999.90;;;18.50;90.70;;;;;;5056047;28;20165;-59
2021/05/30 11:52:13;;;;;;;1999.90;999.90;;;18.60;93.10;;;;;;5055815;28;20161;-59
2021/05/30 11:54:44;;;;;;;1999.90;999.90;;;18.60;92.30;;;;;;5055764;28;20157;-59
2021/05/30 11:57:15;;;;;;;1999.90;999.90;;;18.70;93.40;;;;;;5055951;28;20162;-59
2021/05/30 11:59:44;;;;;;;1999.90;999.90;;;18.70;92.60;;;;;;5055889;28;20569;-59
2021/05/30 12:02:32;;;;;;;1999.90;999.90;;;18.80;91.60;;;;;;5055869;28;20189;-59
2021/05/30 12:05:03;;;;;;;1999.90;999.90;;;18.80;92.20;;;;;;5055887;28;20153;-59
2021/05/30 12:07:30;;;;;;;1999.90;999.90;;;18.90;92.10;;;;;;5055852;28;20231;-59
2021/05/30 12:09:59;;;;;;;1999.90;999.90;;;18.90;92.70;;;;;;5055548;28;20162;-59
2021/05/30 12:12:36;;;;;;;1999.90;999.90;;;19.00;93.90;;;;;;5055522;28;20169;-59
2021/05/30 12:15:11;;;;;;;1999.90;999.90;;;19.10;93.90;;;;;;5055573;28;20164;-59